sensor_id;sensor_type;location;lat;lon;timestamp;P1;durP1;ratioP1;P2;durP2;ratioP2
75885;SDS011;64561;44.018;10.144;2023-04-03T00:01:39;4.00;;;2.05;;
75885;SDS011;64561;44.018;10.144;2023-04-03T00:04:06;3.03;;;1.50;;
75885;SDS011;64561;44.018;10.144;2023-04-03T00:06:33;3.75;;;1.95;;
75885;SDS011;64561;44.018;10.144;2023-04-03T00:09:01;3.28;;;1.80;;
75885;SDS011;64561;44.018;10.144;2023-04-03T00:11:28;3.42;;;1.80;;
75885;SDS011;64561;44.018;10.144;2023-04-03T00:13:55;2.97;;;1.63;;
75885;SDS011;64561;44.018;10.144;2023-04-03T00:16:21;3.97;;;1.95;;
75885;SDS011;64561;44.018;10.144;2023-04-03T00:18:48;3.17;;;1.40;;
75885;SDS011;64561;44.018;10.144;2023-04-03T00:21:15;2.85;;;1.65;;
75885;SDS011;64561;44.018;10.144;2023-04-03T00:23:42;4.32;;;2.03;;
75885;SDS011;64561;44.018;10.144;2023-04-03T00:26:09;4.20;;;2.00;;
75885;SDS011;64561;44.018;10.144;2023-04-03T00:28:38;5.03;;;3.28;;
75885;SDS011;64561;44.018;10.144;2023-04-03T00:31:05;3.90;;;2.05;;
75885;SDS011;64561;44.018;10.144;2023-04-03T00:33:32;3.08;;;1.50;;
75885;SDS011;64561;44.018;10.144;2023-04-03T00:35:59;2.72;;;1.65;;
75885;SDS011;64561;44.018;10.144;2023-04-03T00:38:27;2.65;;;1.52;;
75885;SDS011;64561;44.018;10.144;2023-04-03T00:40:53;2.00;;;1.40;;
75885;SDS011;64561;44.018;10.144;2023-04-03T00:43:21;3.72;;;1.95;;
75885;SDS011;64561;44.018;10.144;2023-04-03T00:45:51;2.67;;;1.63;;
75885;SDS011;64561;44.018;10.144;2023-04-03T00:48:20;4.15;;;1.48;;
75885;SDS011;64561;44.018;10.144;2023-04-03T00:50:52;3.28;;;1.52;;
75885;SDS011;64561;44.018;10.144;2023-04-03T00:53:21;1.88;;;1.23;;
75885;SDS011;64561;44.018;10.144;2023-04-03T00:55:52;4.22;;;2.45;;
75885;SDS011;64561;44.018;10.144;2023-04-03T00:58:22;4.90;;;2.38;;
75885;SDS011;64561;44.018;10.144;2023-04-03T01:00:58;3.55;;;1.85;;
75885;SDS011;64561;44.018;10.144;2023-04-03T01:03:26;4.05;;;1.80;;
75885;SDS011;64561;44.018;10.144;2023-04-03T01:05:53;2.85;;;1.52;;
75885;SDS011;64561;44.018;10.144;2023-04-03T01:08:21;3.25;;;1.75;;
75885;SDS011;64561;44.018;10.144;2023-04-03T01:10:48;2.55;;;1.70;;
75885;SDS011;64561;44.018;10.144;2023-04-03T01:13:23;4.30;;;1.63;;
75885;SDS011;64561;44.018;10.144;2023-04-03T01:15:52;4.18;;;1.98;;
75885;SDS011;64561;44.018;10.144;2023-04-03T01:18:21;5.30;;;1.98;;
75885;SDS011;64561;44.018;10.144;2023-04-03T01:23:58;3.38;;;1.70;;
75885;SDS011;64561;44.018;10.144;2023-04-03T01:26:45;3.22;;;1.48;;
75885;SDS011;64561;44.018;10.144;2023-04-03T01:29:12;4.47;;;1.63;;
75885;SDS011;64561;44.018;10.144;2023-04-03T01:34:19;4.05;;;1.40;;
75885;SDS011;64561;44.018;10.144;2023-04-03T01:36:47;2.78;;;1.58;;
75885;SDS011;64561;44.018;10.144;2023-04-03T01:39:14;2.45;;;1.50;;
75885;SDS011;64561;44.018;10.144;2023-04-03T01:41:41;2.13;;;1.48;;
75885;SDS011;64561;44.018;10.144;2023-04-03T01:44:18;3.17;;;1.40;;
75885;SDS011;64561;44.018;10.144;2023-04-03T01:46:45;1.75;;;1.35;;
75885;SDS011;64561;44.018;10.144;2023-04-03T01:49:12;3.00;;;1.23;;
75885;SDS011;64561;44.018;10.144;2023-04-03T01:51:39;3.78;;;2.03;;
75885;SDS011;64561;44.018;10.144;2023-04-03T01:54:05;5.50;;;2.00;;
75885;SDS011;64561;44.018;10.144;2023-04-03T01:56:32;3.95;;;2.25;;
75885;SDS011;64561;44.018;10.144;2023-04-03T01:58:59;6.68;;;2.80;;
75885;SDS011;64561;44.018;10.144;2023-04-03T02:01:26;4.80;;;1.88;;
75885;SDS011;64561;44.018;10.144;2023-04-03T02:03:53;5.22;;;1.85;;
75885;SDS011;64561;44.018;10.144;2023-04-03T02:06:20;3.40;;;1.73;;
75885;SDS011;64561;44.018;10.144;2023-04-03T02:08:46;2.22;;;1.40;;
75885;SDS011;64561;44.018;10.144;2023-04-03T02:11:13;3.17;;;1.55;;
75885;SDS011;64561;44.018;10.144;2023-04-03T02:13:40;3.55;;;1.60;;
75885;SDS011;64561;44.018;10.144;2023-04-03T02:16:08;2.30;;;1.23;;
75885;SDS011;64561;44.018;10.144;2023-04-03T02:18:37;2.22;;;1.40;;
75885;SDS011;64561;44.018;10.144;2023-04-03T02:21:04;3.08;;;1.63;;
75885;SDS011;64561;44.018;10.144;2023-04-03T02:23:32;1.50;;;1.00;;
75885;SDS011;64561;44.018;10.144;2023-04-03T02:26:03;2.03;;;1.20;;
75885;SDS011;64561;44.018;10.144;2023-04-03T02:28:35;1.90;;;1.10;;
75885;SDS011;64561;44.018;10.144;2023-04-03T02:31:04;1.77;;;1.20;;
75885;SDS011;64561;44.018;10.144;2023-04-03T02:33:34;2.25;;;1.45;;
75885;SDS011;64561;44.018;10.144;2023-04-03T02:36:05;3.55;;;1.45;;
75885;SDS011;64561;44.018;10.144;2023-04-03T02:38:33;1.83;;;1.02;;
75885;SDS011;64561;44.018;10.144;2023-04-03T02:41:10;3.88;;;1.52;;
75885;SDS011;64561;44.018;10.144;2023-04-03T02:43:38;5.05;;;1.73;;
75885;SDS011;64561;44.018;10.144;2023-04-03T02:46:06;2.42;;;1.77;;
75885;SDS011;64561;44.018;10.144;2023-04-03T02:48:33;1.95;;;1.23;;
75885;SDS011;64561;44.018;10.144;2023-04-03T02:51:00;2.95;;;1.70;;
75885;SDS011;64561;44.018;10.144;2023-04-03T02:53:27;2.08;;;1.40;;
75885;SDS011;64561;44.018;10.144;2023-04-03T02:55:55;2.38;;;1.40;;
75885;SDS011;64561;44.018;10.144;2023-04-03T02:58:22;2.83;;;1.25;;
75885;SDS011;64561;44.018;10.144;2023-04-03T03:00:49;2.03;;;1.30;;
75885;SDS011;64561;44.018;10.144;2023-04-03T03:03:16;2.20;;;1.27;;
75885;SDS011;64561;44.018;10.144;2023-04-03T03:05:43;3.42;;;1.25;;
75885;SDS011;64561;44.018;10.144;2023-04-03T03:08:10;3.38;;;1.77;;
75885;SDS011;64561;44.018;10.144;2023-04-03T03:10:37;2.85;;;1.52;;
75885;SDS011;64561;44.018;10.144;2023-04-03T03:13:06;3.85;;;1.67;;
75885;SDS011;64561;44.018;10.144;2023-04-03T03:15:32;3.35;;;1.75;;
75885;SDS011;64561;44.018;10.144;2023-04-03T03:18:01;7.32;;;1.70;;
75885;SDS011;64561;44.018;10.144;2023-04-03T03:20:28;3.58;;;1.40;;
75885;SDS011;64561;44.018;10.144;2023-04-03T03:22:55;2.30;;;1.42;;
75885;SDS011;64561;44.018;10.144;2023-04-03T03:25:24;3.35;;;1.40;;
75885;SDS011;64561;44.018;10.144;2023-04-03T03:27:51;3.08;;;1.50;;
75885;SDS011;64561;44.018;10.144;2023-04-03T03:30:17;2.00;;;1.50;;
75885;SDS011;64561;44.018;10.144;2023-04-03T03:32:45;2.80;;;1.35;;
75885;SDS011;64561;44.018;10.144;2023-04-03T03:35:11;1.98;;;1.15;;
75885;SDS011;64561;44.018;10.144;2023-04-03T03:37:38;2.20;;;1.20;;
75885;SDS011;64561;44.018;10.144;2023-04-03T03:40:06;2.35;;;1.40;;
75885;SDS011;64561;44.018;10.144;2023-04-03T03:42:33;1.55;;;1.20;;
75885;SDS011;64561;44.018;10.144;2023-04-03T03:45:01;2.40;;;1.77;;
75885;SDS011;64561;44.018;10.144;2023-04-03T03:47:28;3.83;;;1.38;;
75885;SDS011;64561;44.018;10.144;2023-04-03T03:49:55;2.72;;;1.50;;
75885;SDS011;64561;44.018;10.144;2023-04-03T03:52:22;2.90;;;1.65;;
75885;SDS011;64561;44.018;10.144;2023-04-03T03:54:49;2.97;;;1.20;;
75885;SDS011;64561;44.018;10.144;2023-04-03T03:57:15;3.25;;;1.38;;
75885;SDS011;64561;44.018;10.144;2023-04-03T03:59:43;1.83;;;1.10;;
75885;SDS011;64561;44.018;10.144;2023-04-03T04:02:11;3.22;;;1.50;;
75885;SDS011;64561;44.018;10.144;2023-04-03T04:04:37;2.85;;;1.60;;
75885;SDS011;64561;44.018;10.144;2023-04-03T04:07:04;2.05;;;1.40;;
75885;SDS011;64561;44.018;10.144;2023-04-03T04:09:32;2.05;;;1.25;;
75885;SDS011;64561;44.018;10.144;2023-04-03T04:11:59;3.90;;;1.40;;
75885;SDS011;64561;44.018;10.144;2023-04-03T04:14:28;3.85;;;1.73;;
75885;SDS011;64561;44.018;10.144;2023-04-03T04:16:55;4.13;;;1.90;;
75885;SDS011;64561;44.018;10.144;2023-04-03T04:19:25;5.00;;;1.65;;
75885;SDS011;64561;44.018;10.144;2023-04-03T04:21:53;3.80;;;1.90;;
75885;SDS011;64561;44.018;10.144;2023-04-03T04:24:19;3.58;;;1.70;;
75885;SDS011;64561;44.018;10.144;2023-04-03T04:26:48;2.85;;;1.80;;
75885;SDS011;64561;44.018;10.144;2023-04-03T04:29:16;5.07;;;1.77;;
75885;SDS011;64561;44.018;10.144;2023-04-03T04:31:46;3.88;;;1.80;;
75885;SDS011;64561;44.018;10.144;2023-04-03T04:34:13;2.88;;;1.60;;
75885;SDS011;64561;44.018;10.144;2023-04-03T04:36:41;4.00;;;1.65;;
75885;SDS011;64561;44.018;10.144;2023-04-03T04:39:08;4.15;;;2.15;;
75885;SDS011;64561;44.018;10.144;2023-04-03T04:41:35;4.97;;;2.30;;
75885;SDS011;64561;44.018;10.144;2023-04-03T04:44:05;3.58;;;2.45;;
75885;SDS011;64561;44.018;10.144;2023-04-03T04:46:32;4.03;;;2.33;;
75885;SDS011;64561;44.018;10.144;2023-04-03T04:48:59;4.85;;;2.40;;
75885;SDS011;64561;44.018;10.144;2023-04-03T04:51:28;4.15;;;2.50;;
75885;SDS011;64561;44.018;10.144;2023-04-03T04:54:09;3.20;;;2.30;;
75885;SDS011;64561;44.018;10.144;2023-04-03T04:56:36;5.10;;;2.35;;
75885;SDS011;64561;44.018;10.144;2023-04-03T04:59:03;4.47;;;2.15;;
75885;SDS011;64561;44.018;10.144;2023-04-03T05:01:30;4.25;;;2.10;;
75885;SDS011;64561;44.018;10.144;2023-04-03T05:04:10;3.28;;;1.90;;
75885;SDS011;64561;44.018;10.144;2023-04-03T05:06:39;4.05;;;2.30;;
75885;SDS011;64561;44.018;10.144;2023-04-03T05:09:11;7.65;;;2.25;;
75885;SDS011;64561;44.018;10.144;2023-04-03T05:11:41;6.90;;;2.42;;
75885;SDS011;64561;44.018;10.144;2023-04-03T05:14:10;5.95;;;2.10;;
75885;SDS011;64561;44.018;10.144;2023-04-03T05:16:37;4.70;;;2.50;;
75885;SDS011;64561;44.018;10.144;2023-04-03T05:19:05;5.35;;;2.15;;
75885;SDS011;64561;44.018;10.144;2023-04-03T05:21:33;6.15;;;3.25;;
75885;SDS011;64561;44.018;10.144;2023-04-03T05:24:05;4.93;;;2.38;;
75885;SDS011;64561;44.018;10.144;2023-04-03T05:26:38;4.97;;;2.28;;
75885;SDS011;64561;44.018;10.144;2023-04-03T05:29:06;5.63;;;3.03;;
75885;SDS011;64561;44.018;10.144;2023-04-03T05:31:33;6.20;;;2.85;;
75885;SDS011;64561;44.018;10.144;2023-04-03T05:34:00;4.40;;;3.05;;
75885;SDS011;64561;44.018;10.144;2023-04-03T05:36:29;4.50;;;2.88;;
75885;SDS011;64561;44.018;10.144;2023-04-03T05:39:02;6.05;;;2.95;;
75885;SDS011;64561;44.018;10.144;2023-04-03T05:41:32;8.32;;;2.30;;
75885;SDS011;64561;44.018;10.144;2023-04-03T05:43:59;5.65;;;2.70;;
75885;SDS011;64561;44.018;10.144;2023-04-03T05:46:26;7.78;;;2.53;;
75885;SDS011;64561;44.018;10.144;2023-04-03T05:48:55;7.10;;;2.80;;
75885;SDS011;64561;44.018;10.144;2023-04-03T05:51:29;6.45;;;3.08;;
75885;SDS011;64561;44.018;10.144;2023-04-03T05:54:12;5.85;;;2.67;;
75885;SDS011;64561;44.018;10.144;2023-04-03T05:56:46;8.27;;;2.67;;
75885;SDS011;64561;44.018;10.144;2023-04-03T05:59:13;7.40;;;3.22;;
75885;SDS011;64561;44.018;10.144;2023-04-03T06:01:39;9.73;;;3.72;;
75885;SDS011;64561;44.018;10.144;2023-04-03T06:04:07;9.20;;;4.90;;
75885;SDS011;64561;44.018;10.144;2023-04-03T06:06:43;19.92;;;8.50;;
75885;SDS011;64561;44.018;10.144;2023-04-03T06:11:43;18.02;;;5.97;;
75885;SDS011;64561;44.018;10.144;2023-04-03T06:14:10;15.30;;;5.90;;
75885;SDS011;64561;44.018;10.144;2023-04-03T06:16:37;9.05;;;4.80;;
75885;SDS011;64561;44.018;10.144;2023-04-03T06:19:09;11.32;;;4.18;;
75885;SDS011;64561;44.018;10.144;2023-04-03T06:21:43;9.27;;;4.53;;
75885;SDS011;64561;44.018;10.144;2023-04-03T06:24:10;16.30;;;5.60;;
75885;SDS011;64561;44.018;10.144;2023-04-03T06:26:41;7.97;;;4.63;;
75885;SDS011;64561;44.018;10.144;2023-04-03T06:29:09;11.68;;;5.25;;
75885;SDS011;64561;44.018;10.144;2023-04-03T06:31:36;17.60;;;7.80;;
75885;SDS011;64561;44.018;10.144;2023-04-03T06:34:03;19.38;;;8.18;;
75885;SDS011;64561;44.018;10.144;2023-04-03T06:36:33;13.05;;;6.38;;
75885;SDS011;64561;44.018;10.144;2023-04-03T06:39:00;13.95;;;6.63;;
75885;SDS011;64561;44.018;10.144;2023-04-03T06:41:29;16.42;;;7.07;;
75885;SDS011;64561;44.018;10.144;2023-04-03T06:43:56;16.52;;;7.35;;
75885;SDS011;64561;44.018;10.144;2023-04-03T06:46:25;9.43;;;4.57;;
75885;SDS011;64561;44.018;10.144;2023-04-03T06:48:53;7.35;;;4.22;;
75885;SDS011;64561;44.018;10.144;2023-04-03T06:51:27;7.38;;;4.15;;
75885;SDS011;64561;44.018;10.144;2023-04-03T06:53:55;13.50;;;4.30;;
75885;SDS011;64561;44.018;10.144;2023-04-03T06:56:24;12.05;;;4.93;;
75885;SDS011;64561;44.018;10.144;2023-04-03T06:58:53;9.65;;;4.38;;
75885;SDS011;64561;44.018;10.144;2023-04-03T07:01:21;7.88;;;3.78;;
75885;SDS011;64561;44.018;10.144;2023-04-03T07:03:48;9.40;;;3.90;;
75885;SDS011;64561;44.018;10.144;2023-04-03T07:06:15;11.70;;;4.60;;
75885;SDS011;64561;44.018;10.144;2023-04-03T07:08:43;10.95;;;3.60;;
75885;SDS011;64561;44.018;10.144;2023-04-03T07:11:11;12.45;;;4.97;;
75885;SDS011;64561;44.018;10.144;2023-04-03T07:13:39;15.70;;;5.82;;
75885;SDS011;64561;44.018;10.144;2023-04-03T07:16:06;11.07;;;4.93;;
75885;SDS011;64561;44.018;10.144;2023-04-03T07:18:33;8.38;;;4.03;;
75885;SDS011;64561;44.018;10.144;2023-04-03T07:21:01;6.57;;;3.00;;
75885;SDS011;64561;44.018;10.144;2023-04-03T07:23:29;7.20;;;2.65;;
75885;SDS011;64561;44.018;10.144;2023-04-03T07:25:56;5.75;;;2.67;;
75885;SDS011;64561;44.018;10.144;2023-04-03T07:28:23;6.43;;;3.92;;
75885;SDS011;64561;44.018;10.144;2023-04-03T07:30:51;4.80;;;2.38;;
75885;SDS011;64561;44.018;10.144;2023-04-03T07:33:29;5.85;;;2.13;;
75885;SDS011;64561;44.018;10.144;2023-04-03T07:35:56;5.10;;;2.28;;
75885;SDS011;64561;44.018;10.144;2023-04-03T07:38:23;5.13;;;2.33;;
75885;SDS011;64561;44.018;10.144;2023-04-03T07:40:50;5.80;;;2.75;;
75885;SDS011;64561;44.018;10.144;2023-04-03T07:43:20;15.00;;;2.35;;
75885;SDS011;64561;44.018;10.144;2023-04-03T07:45:48;6.40;;;2.60;;
75885;SDS011;64561;44.018;10.144;2023-04-03T07:48:19;7.97;;;2.88;;
75885;SDS011;64561;44.018;10.144;2023-04-03T07:50:46;7.38;;;2.95;;
75885;SDS011;64561;44.018;10.144;2023-04-03T07:53:13;10.23;;;4.00;;
75885;SDS011;64561;44.018;10.144;2023-04-03T07:55:40;9.00;;;3.92;;
75885;SDS011;64561;44.018;10.144;2023-04-03T07:58:10;10.98;;;4.47;;
75885;SDS011;64561;44.018;10.144;2023-04-03T08:00:39;10.50;;;4.20;;
75885;SDS011;64561;44.018;10.144;2023-04-03T08:03:06;7.95;;;3.78;;
75885;SDS011;64561;44.018;10.144;2023-04-03T08:05:40;10.63;;;3.42;;
75885;SDS011;64561;44.018;10.144;2023-04-03T08:08:09;6.13;;;2.58;;
75885;SDS011;64561;44.018;10.144;2023-04-03T08:10:38;4.80;;;2.60;;
75885;SDS011;64561;44.018;10.144;2023-04-03T08:13:06;4.47;;;2.30;;
75885;SDS011;64561;44.018;10.144;2023-04-03T08:15:33;3.63;;;2.05;;
75885;SDS011;64561;44.018;10.144;2023-04-03T08:18:00;10.80;;;4.90;;
75885;SDS011;64561;44.018;10.144;2023-04-03T08:20:27;6.82;;;3.63;;
75885;SDS011;64561;44.018;10.144;2023-04-03T08:22:54;11.18;;;5.07;;
75885;SDS011;64561;44.018;10.144;2023-04-03T08:25:21;8.80;;;3.92;;
75885;SDS011;64561;44.018;10.144;2023-04-03T08:27:48;5.18;;;3.03;;
75885;SDS011;64561;44.018;10.144;2023-04-03T08:30:15;12.50;;;6.57;;
75885;SDS011;64561;44.018;10.144;2023-04-03T08:32:42;8.15;;;4.38;;
75885;SDS011;64561;44.018;10.144;2023-04-03T08:35:10;3.97;;;2.00;;
75885;SDS011;64561;44.018;10.144;2023-04-03T08:37:38;3.97;;;1.70;;
75885;SDS011;64561;44.018;10.144;2023-04-03T08:40:06;5.90;;;2.80;;
75885;SDS011;64561;44.018;10.144;2023-04-03T08:45:39;2.40;;;1.30;;
75885;SDS011;64561;44.018;10.144;2023-04-03T08:48:15;3.13;;;1.20;;
75885;SDS011;64561;44.018;10.144;2023-04-03T08:53:19;1.67;;;1.17;;
75885;SDS011;64561;44.018;10.144;2023-04-03T08:55:49;3.15;;;1.52;;
75885;SDS011;64561;44.018;10.144;2023-04-03T08:58:30;3.55;;;1.30;;
75885;SDS011;64561;44.018;10.144;2023-04-03T09:01:00;4.30;;;2.10;;
75885;SDS011;64561;44.018;10.144;2023-04-03T09:03:38;3.97;;;2.05;;
75885;SDS011;64561;44.018;10.144;2023-04-03T09:06:07;3.22;;;1.67;;
75885;SDS011;64561;44.018;10.144;2023-04-03T09:20:19;3.88;;;1.83;;
75885;SDS011;64561;44.018;10.144;2023-04-03T09:25:56;8.30;;;4.88;;
75885;SDS011;64561;44.018;10.144;2023-04-03T09:28:31;2.70;;;1.63;;
75885;SDS011;64561;44.018;10.144;2023-04-03T09:31:16;2.90;;;1.50;;
75885;SDS011;64561;44.018;10.144;2023-04-03T09:33:47;2.88;;;1.30;;
75885;SDS011;64561;44.018;10.144;2023-04-03T09:39:24;3.72;;;1.77;;
75885;SDS011;64561;44.018;10.144;2023-04-03T09:44:26;3.05;;;1.45;;
75885;SDS011;64561;44.018;10.144;2023-04-03T09:46:56;3.25;;;2.30;;
75885;SDS011;64561;44.018;10.144;2023-04-03T09:49:24;3.83;;;1.83;;
75885;SDS011;64561;44.018;10.144;2023-04-03T09:51:51;8.95;;;3.58;;
75885;SDS011;64561;44.018;10.144;2023-04-03T09:56:57;3.85;;;1.80;;
75885;SDS011;64561;44.018;10.144;2023-04-03T09:59:30;3.80;;;1.88;;
75885;SDS011;64561;44.018;10.144;2023-04-03T10:02:20;4.72;;;2.65;;
75885;SDS011;64561;44.018;10.144;2023-04-03T10:04:59;6.28;;;2.42;;
75885;SDS011;64561;44.018;10.144;2023-04-03T10:07:39;3.78;;;1.75;;
75885;SDS011;64561;44.018;10.144;2023-04-03T10:12:41;6.22;;;3.47;;
75885;SDS011;64561;44.018;10.144;2023-04-03T10:15:11;4.60;;;2.00;;
75885;SDS011;64561;44.018;10.144;2023-04-03T10:20:49;2.60;;;1.55;;
75885;SDS011;64561;44.018;10.144;2023-04-03T10:23:26;2.40;;;1.20;;
75885;SDS011;64561;44.018;10.144;2023-04-03T10:28:43;1.65;;;1.10;;
75885;SDS011;64561;44.018;10.144;2023-04-03T10:48:22;3.75;;;2.35;;
75885;SDS011;64561;44.018;10.144;2023-04-03T10:50:44;4.28;;;1.95;;
75885;SDS011;64561;44.018;10.144;2023-04-03T10:53:27;3.03;;;1.63;;
75885;SDS011;64561;44.018;10.144;2023-04-03T10:58:48;1.08;;;0.80;;
75885;SDS011;64561;44.018;10.144;2023-04-03T11:01:22;3.92;;;1.55;;
75885;SDS011;64561;44.018;10.144;2023-04-03T11:03:54;6.10;;;3.08;;
75885;SDS011;64561;44.018;10.144;2023-04-03T11:06:25;2.15;;;1.20;;
75885;SDS011;64561;44.018;10.144;2023-04-03T11:09:01;2.05;;;1.08;;
75885;SDS011;64561;44.018;10.144;2023-04-03T11:11:33;3.22;;;1.80;;
75885;SDS011;64561;44.018;10.144;2023-04-03T11:14:10;5.25;;;2.75;;
75885;SDS011;64561;44.018;10.144;2023-04-03T11:16:47;1.52;;;1.05;;
75885;SDS011;64561;44.018;10.144;2023-04-03T11:19:21;4.43;;;2.88;;
75885;SDS011;64561;44.018;10.144;2023-04-03T11:24:41;3.30;;;2.08;;
75885;SDS011;64561;44.018;10.144;2023-04-03T11:27:12;2.92;;;1.15;;
75885;SDS011;64561;44.018;10.144;2023-04-03T11:29:48;2.85;;;1.23;;
75885;SDS011;64561;44.018;10.144;2023-04-03T11:35:28;1.90;;;1.17;;
75885;SDS011;64561;44.018;10.144;2023-04-03T11:37:55;1.92;;;1.40;;
75885;SDS011;64561;44.018;10.144;2023-04-03T11:45:29;3.72;;;1.60;;
75885;SDS011;64561;44.018;10.144;2023-04-03T11:50:49;3.20;;;1.80;;
75885;SDS011;64561;44.018;10.144;2023-04-03T11:55:45;3.47;;;1.70;;
75885;SDS011;64561;44.018;10.144;2023-04-03T11:58:21;6.93;;;4.05;;
75885;SDS011;64561;44.018;10.144;2023-04-03T12:08:58;2.13;;;1.35;;
75885;SDS011;64561;44.018;10.144;2023-04-03T12:11:29;2.03;;;1.13;;
75885;SDS011;64561;44.018;10.144;2023-04-03T12:16:27;1.40;;;1.02;;
75885;SDS011;64561;44.018;10.144;2023-04-03T12:19:27;1.95;;;1.33;;
75885;SDS011;64561;44.018;10.144;2023-04-03T12:22:07;3.30;;;1.80;;
75885;SDS011;64561;44.018;10.144;2023-04-03T12:24:37;3.33;;;1.40;;
75885;SDS011;64561;44.018;10.144;2023-04-03T12:27:14;1.70;;;0.90;;
75885;SDS011;64561;44.018;10.144;2023-04-03T12:30:03;2.22;;;1.20;;
75885;SDS011;64561;44.018;10.144;2023-04-03T12:35:47;2.58;;;1.10;;
75885;SDS011;64561;44.018;10.144;2023-04-03T12:44:05;1.50;;;0.90;;
75885;SDS011;64561;44.018;10.144;2023-04-03T12:46:45;2.58;;;0.90;;
75885;SDS011;64561;44.018;10.144;2023-04-03T12:49:37;1.70;;;0.90;;
75885;SDS011;64561;44.018;10.144;2023-04-03T12:52:05;4.00;;;1.15;;
75885;SDS011;64561;44.018;10.144;2023-04-03T12:54:48;1.95;;;1.13;;
75885;SDS011;64561;44.018;10.144;2023-04-03T12:57:22;1.35;;;1.00;;
75885;SDS011;64561;44.018;10.144;2023-04-03T12:59:51;2.28;;;1.30;;
75885;SDS011;64561;44.018;10.144;2023-04-03T13:02:52;1.95;;;1.10;;
75885;SDS011;64561;44.018;10.144;2023-04-03T13:05:14;2.10;;;1.15;;
75885;SDS011;64561;44.018;10.144;2023-04-03T13:07:47;3.10;;;1.25;;
75885;SDS011;64561;44.018;10.144;2023-04-03T13:10:17;2.17;;;1.35;;
75885;SDS011;64561;44.018;10.144;2023-04-03T13:12:45;4.05;;;1.63;;
75885;SDS011;64561;44.018;10.144;2023-04-03T13:15:14;2.30;;;1.30;;
75885;SDS011;64561;44.018;10.144;2023-04-03T13:17:46;1.63;;;1.23;;
75885;SDS011;64561;44.018;10.144;2023-04-03T13:20:29;1.80;;;1.20;;
75885;SDS011;64561;44.018;10.144;2023-04-03T13:23:05;3.10;;;1.40;;
75885;SDS011;64561;44.018;10.144;2023-04-03T13:25:36;2.05;;;1.25;;
75885;SDS011;64561;44.018;10.144;2023-04-03T13:28:10;2.78;;;1.38;;
75885;SDS011;64561;44.018;10.144;2023-04-03T13:30:40;3.33;;;1.73;;
75885;SDS011;64561;44.018;10.144;2023-04-03T13:33:23;3.13;;;1.45;;
75885;SDS011;64561;44.018;10.144;2023-04-03T13:35:54;2.17;;;1.33;;
75885;SDS011;64561;44.018;10.144;2023-04-03T13:38:40;2.58;;;1.23;;
75885;SDS011;64561;44.018;10.144;2023-04-03T13:43:55;3.17;;;1.83;;
75885;SDS011;64561;44.018;10.144;2023-04-03T13:46:35;3.80;;;1.35;;
75885;SDS011;64561;44.018;10.144;2023-04-03T13:49:09;2.08;;;1.15;;
75885;SDS011;64561;44.018;10.144;2023-04-03T13:51:47;2.20;;;1.35;;
75885;SDS011;64561;44.018;10.144;2023-04-03T13:54:29;2.10;;;1.33;;
75885;SDS011;64561;44.018;10.144;2023-04-03T13:56:59;4.40;;;1.30;;
75885;SDS011;64561;44.018;10.144;2023-04-03T13:59:31;2.45;;;1.42;;
75885;SDS011;64561;44.018;10.144;2023-04-03T14:04:29;2.40;;;1.20;;
75885;SDS011;64561;44.018;10.144;2023-04-03T14:07:19;2.42;;;1.40;;
75885;SDS011;64561;44.018;10.144;2023-04-03T14:09:47;2.53;;;1.30;;
75885;SDS011;64561;44.018;10.144;2023-04-03T14:12:16;2.17;;;1.20;;
75885;SDS011;64561;44.018;10.144;2023-04-03T14:14:57;1.95;;;1.30;;
75885;SDS011;64561;44.018;10.144;2023-04-03T14:17:27;1.95;;;1.20;;
75885;SDS011;64561;44.018;10.144;2023-04-03T14:19:55;2.50;;;1.35;;
75885;SDS011;64561;44.018;10.144;2023-04-03T14:22:24;4.30;;;1.60;;
75885;SDS011;64561;44.018;10.144;2023-04-03T14:24:55;5.75;;;1.80;;
75885;SDS011;64561;44.018;10.144;2023-04-03T14:27:24;3.50;;;1.40;;
75885;SDS011;64561;44.018;10.144;2023-04-03T14:29:53;3.45;;;1.40;;
75885;SDS011;64561;44.018;10.144;2023-04-03T14:32:22;2.80;;;1.50;;
75885;SDS011;64561;44.018;10.144;2023-04-03T14:34:50;2.75;;;1.40;;
75885;SDS011;64561;44.018;10.144;2023-04-03T14:37:23;2.10;;;1.15;;
75885;SDS011;64561;44.018;10.144;2023-04-03T14:39:53;4.70;;;1.67;;
75885;SDS011;64561;44.018;10.144;2023-04-03T14:42:21;2.70;;;1.50;;
75885;SDS011;64561;44.018;10.144;2023-04-03T14:44:54;4.72;;;1.55;;
75885;SDS011;64561;44.018;10.144;2023-04-03T14:47:23;2.63;;;1.70;;
75885;SDS011;64561;44.018;10.144;2023-04-03T14:50:00;3.90;;;1.60;;
75885;SDS011;64561;44.018;10.144;2023-04-03T14:52:31;5.28;;;1.95;;
75885;SDS011;64561;44.018;10.144;2023-04-03T14:55:00;2.10;;;1.40;;
75885;SDS011;64561;44.018;10.144;2023-04-03T14:57:28;2.33;;;1.25;;
75885;SDS011;64561;44.018;10.144;2023-04-03T14:59:56;2.35;;;1.40;;
75885;SDS011;64561;44.018;10.144;2023-04-03T15:02:36;3.33;;;1.98;;
75885;SDS011;64561;44.018;10.144;2023-04-03T15:05:06;3.67;;;1.70;;
75885;SDS011;64561;44.018;10.144;2023-04-03T15:07:36;2.53;;;1.52;;
75885;SDS011;64561;44.018;10.144;2023-04-03T15:10:19;3.78;;;1.50;;
75885;SDS011;64561;44.018;10.144;2023-04-03T15:12:46;3.22;;;1.58;;
75885;SDS011;64561;44.018;10.144;2023-04-03T15:15:15;3.40;;;1.35;;
75885;SDS011;64561;44.018;10.144;2023-04-03T15:17:43;3.00;;;1.40;;
75885;SDS011;64561;44.018;10.144;2023-04-03T15:20:18;2.22;;;1.42;;
75885;SDS011;64561;44.018;10.144;2023-04-03T15:22:47;4.82;;;1.52;;
75885;SDS011;64561;44.018;10.144;2023-04-03T15:25:14;3.40;;;1.50;;
75885;SDS011;64561;44.018;10.144;2023-04-03T15:27:42;2.58;;;1.20;;
75885;SDS011;64561;44.018;10.144;2023-04-03T15:30:13;3.28;;;1.55;;
75885;SDS011;64561;44.018;10.144;2023-04-03T15:32:42;2.67;;;1.40;;
75885;SDS011;64561;44.018;10.144;2023-04-03T15:35:09;2.03;;;1.48;;
75885;SDS011;64561;44.018;10.144;2023-04-03T15:37:36;2.15;;;1.30;;
75885;SDS011;64561;44.018;10.144;2023-04-03T15:40:04;4.40;;;1.40;;
75885;SDS011;64561;44.018;10.144;2023-04-03T15:42:32;3.35;;;1.42;;
75885;SDS011;64561;44.018;10.144;2023-04-03T15:44:58;1.65;;;1.10;;
75885;SDS011;64561;44.018;10.144;2023-04-03T15:47:26;2.03;;;1.30;;
75885;SDS011;64561;44.018;10.144;2023-04-03T15:49:54;2.10;;;1.30;;
75885;SDS011;64561;44.018;10.144;2023-04-03T15:52:21;2.35;;;1.42;;
75885;SDS011;64561;44.018;10.144;2023-04-03T15:54:48;2.45;;;1.50;;
75885;SDS011;64561;44.018;10.144;2023-04-03T15:57:15;3.35;;;1.40;;
75885;SDS011;64561;44.018;10.144;2023-04-03T15:59:42;3.15;;;1.40;;
75885;SDS011;64561;44.018;10.144;2023-04-03T16:02:08;1.95;;;1.30;;
75885;SDS011;64561;44.018;10.144;2023-04-03T16:04:39;2.00;;;1.20;;
75885;SDS011;64561;44.018;10.144;2023-04-03T16:07:07;2.80;;;1.23;;
75885;SDS011;64561;44.018;10.144;2023-04-03T16:09:34;3.10;;;1.50;;
75885;SDS011;64561;44.018;10.144;2023-04-03T16:12:02;2.33;;;1.23;;
75885;SDS011;64561;44.018;10.144;2023-04-03T16:14:29;2.15;;;1.30;;
75885;SDS011;64561;44.018;10.144;2023-04-03T16:16:57;4.75;;;1.42;;
75885;SDS011;64561;44.018;10.144;2023-04-03T16:19:26;2.38;;;1.40;;
75885;SDS011;64561;44.018;10.144;2023-04-03T16:21:53;3.25;;;1.40;;
75885;SDS011;64561;44.018;10.144;2023-04-03T16:24:21;4.72;;;2.03;;
75885;SDS011;64561;44.018;10.144;2023-04-03T16:26:48;3.67;;;2.28;;
75885;SDS011;64561;44.018;10.144;2023-04-03T16:29:15;2.85;;;1.70;;
75885;SDS011;64561;44.018;10.144;2023-04-03T16:31:42;3.10;;;1.40;;
75885;SDS011;64561;44.018;10.144;2023-04-03T16:34:09;2.50;;;1.38;;
75885;SDS011;64561;44.018;10.144;2023-04-03T16:36:36;3.92;;;1.90;;